Time;durP1;ratioP1;P1;durP2;ratioP2;P2;SDS_P1;SDS_P2;PMS_P1;PMS_P2;Temp;Humidity;BMP_temperature;BMP_pressure;BME280_temperature;BME280_humidity;BME280_pressure;Samples;Min_cycle;Max_cycle;Signal;HPM_P1;HPM_P2
2021/08/02 00:01:56;;;;;;;9.43;4.13;;;18.50;55.30;;;;;;5079744;28;20517;-89
2021/08/02 00:04:28;;;;;;;9.60;4.17;;;18.70;54.30;;;;;;5093327;28;20548;-89
2021/08/02 00:07:04;;;;;;;14.83;4.07;;;18.60;54.50;;;;;;5093689;28;20442;-89
2021/08/02 00:09:35;;;;;;;20.10;4.00;;;18.80;53.80;;;;;;5094468;28;20481;-89
2021/08/02 00:12:05;;;;;;;9.67;4.20;;;19.10;53.60;;;;;;5097837;28;20486;-90
2021/08/02 00:14:34;;;;;;;5.80;4.07;;;19.20;52.70;;;;;;5097779;28;20530;-89
2021/08/02 00:17:01;;;;;;;12.77;3.83;;;19.20;52.40;;;;;;5097339;28;20514;-89
2021/08/02 00:19:29;;;;;;;7.87;3.70;;;19.20;52.20;;;;;;5097200;28;20438;-89
2021/08/02 00:21:56;;;;;;;7.70;4.00;;;19.20;52.50;;;;;;5097267;28;21016;-89
2021/08/02 00:24:24;;;;;;;10.90;4.17;;;19.00;52.60;;;;;;5097054;28;20445;-90
2021/08/02 00:26:54;;;;;;;10.60;3.70;;;19.00;53.10;;;;;;5097189;28;20538;-89
2021/08/02 00:29:21;;;;;;;10.07;4.03;;;18.90;52.80;;;;;;5097878;28;20510;-89
2021/08/02 00:31:49;;;;;;;10.70;4.20;;;18.70;53.30;;;;;;5097711;28;20501;-89
2021/08/02 00:34:16;;;;;;;10.70;4.40;;;18.60;54.10;;;;;;5097970;28;20474;-89
2021/08/02 00:36:47;;;;;;;4.90;3.80;;;18.60;54.40;;;;;;5097612;28;20438;-89
2021/08/02 00:39:23;;;;;;;7.20;4.07;;;18.60;54.50;;;;;;5097394;28;20896;-89
2021/08/02 00:42:27;;;;;;;8.47;3.67;;;18.60;53.80;;;;;;5097568;28;20473;-89
2021/08/02 00:45:20;;;;;;;16.73;4.67;;;18.50;53.60;;;;;;5067526;28;20438;-89
2021/08/02 00:47:51;;;;;;;14.63;3.77;;;18.70;53.60;;;;;;5097567;28;20990;-89
2021/08/02 00:50:20;;;;;;;5.50;3.50;;;18.80;53.30;;;;;;5097884;28;20445;-90
2021/08/02 00:52:56;;;;;;;7.70;3.80;;;18.80;53.50;;;;;;5096914;28;20958;-90
2021/08/02 00:55:24;;;;;;;5.47;3.80;;;18.80;53.30;;;;;;5097230;28;20446;-89
2021/08/02 00:57:57;;;;;;;8.83;3.57;;;18.80;54.30;;;;;;5097207;28;20442;-89
2021/08/02 01:00:25;;;;;;;9.23;3.60;;;18.80;53.00;;;;;;5097246;28;20940;-90
2021/08/02 01:02:53;;;;;;;4.80;3.90;;;18.90;52.60;;;;;;5097082;28;20515;-89
2021/08/02 01:05:21;;;;;;;5.50;3.43;;;19.00;52.50;;;;;;5096926;28;20484;-89
2021/08/02 01:07:53;;;;;;;5.87;3.40;;;19.00;52.80;;;;;;5096823;28;20518;-89
2021/08/02 01:10:20;;;;;;;39.37;4.30;;;19.00;53.00;;;;;;5096736;28;20450;-89
2021/08/02 01:12:50;;;;;;;6.00;3.83;;;19.10;52.70;;;;;;5096300;28;20506;-89
2021/08/02 01:15:19;;;;;;;8.30;3.87;;;19.00;52.60;;;;;;5096278;28;20547;-89
2021/08/02 01:17:48;;;;;;;10.73;4.90;;;19.00;53.00;;;;;;5096922;28;20485;-90
2021/08/02 01:20:17;;;;;;;8.53;3.77;;;19.30;52.50;;;;;;5097408;28;20533;-90
2021/08/02 01:22:46;;;;;;;8.40;4.03;;;19.00;53.40;;;;;;5097433;28;20470;-90
2021/08/02 01:25:58;;;;;;;7.93;4.17;;;19.10;52.60;;;;;;5097863;28;20435;-90
2021/08/02 01:29:02;;;;;;;15.90;4.70;;;19.20;52.10;;;;;;5098297;28;20840;-90
2021/08/02 01:31:29;;;;;;;6.70;4.47;;;19.20;52.30;;;;;;5098492;28;20441;-90
2021/08/02 01:33:57;;;;;;;10.07;3.90;;;19.00;52.70;;;;;;5096381;28;20565;-90
2021/08/02 01:36:26;;;;;;;6.37;4.07;;;19.20;52.30;;;;;;5096828;28;20485;-90
2021/08/02 01:38:54;;;;;;;18.63;8.90;;;19.30;52.20;;;;;;5095988;28;20935;-90
2021/08/02 01:41:22;;;;;;;11.83;5.57;;;19.40;53.00;;;;;;5096018;28;20544;-90
2021/08/02 01:43:49;;;;;;;7.77;4.17;;;19.40;51.90;;;;;;5096096;28;20470;-90
2021/08/02 01:46:22;;;;;;;6.13;4.47;;;19.50;52.00;;;;;;5096278;28;20466;-89
2021/08/02 01:49:00;;;;;;;10.90;4.00;;;19.60;51.40;;;;;;5096047;28;20404;-90
2021/08/02 01:51:35;;;;;;;15.83;6.37;;;19.70;51.40;;;;;;5095839;28;20434;-90
2021/08/02 01:54:11;;;;;;;9.87;4.30;;;19.80;51.50;;;;;;5096459;28;20545;-90
2021/08/02 01:56:53;;;;;;;9.80;5.17;;;19.80;51.50;;;;;;5095802;28;20458;-89
2021/08/02 01:59:25;;;;;;;10.60;4.93;;;19.60;51.30;;;;;;5096559;28;20426;-89
2021/08/02 02:01:57;;;;;;;7.37;4.13;;;19.70;51.40;;;;;;5096053;28;20469;-89
2021/08/02 02:04:29;;;;;;;24.63;3.80;;;19.90;51.60;;;;;;5095653;28;20784;-91
2021/08/02 02:06:59;;;;;;;5.53;4.30;;;19.90;53.30;;;;;;5096278;28;20411;-91
2021/08/02 02:09:30;;;;;;;7.97;3.57;;;19.70;52.60;;;;;;5096194;28;20414;-91
2021/08/02 02:12:00;;;;;;;6.37;3.70;;;19.60;52.40;;;;;;5095942;28;20480;-92
2021/08/02 02:14:28;;;;;;;6.70;3.70;;;19.70;52.40;;;;;;5096411;28;20513;-91
2021/08/02 02:16:58;;;;;;;8.00;3.90;;;19.80;52.50;;;;;;5096048;28;20846;-91
2021/08/02 02:19:28;;;;;;;11.40;3.90;;;19.60;52.60;;;;;;5095708;28;20529;-91
2021/08/02 02:21:56;;;;;;;5.17;3.53;;;19.30;53.70;;;;;;5095314;28;20493;-91
2021/08/02 02:24:24;;;;;;;5.47;3.87;;;19.20;54.10;;;;;;5095565;28;20517;-91
2021/08/02 02:26:54;;;;;;;8.00;3.60;;;19.20;54.10;;;;;;5095364;28;20999;-91
2021/08/02 02:29:22;;;;;;;13.97;3.83;;;19.30;53.70;;;;;;5095439;28;20966;-91
2021/08/02 02:31:50;;;;;;;17.03;4.10;;;19.10;54.60;;;;;;5094955;28;20455;-91
2021/08/02 02:34:19;;;;;;;7.53;3.70;;;19.10;54.60;;;;;;5094833;28;20565;-91
2021/08/02 02:36:47;;;;;;;14.10;4.10;;;19.30;54.00;;;;;;5094784;28;20533;-91
2021/08/02 02:39:14;;;;;;;20.37;4.10;;;19.50;54.00;;;;;;5094690;28;20919;-91
2021/08/02 02:41:43;;;;;;;6.97;3.63;;;19.40;53.80;;;;;;5094749;28;20516;-91
2021/08/02 02:44:12;;;;;;;6.10;3.87;;;19.50;53.80;;;;;;5094701;28;20780;-91
2021/08/02 02:46:39;;;;;;;14.33;3.90;;;19.50;53.60;;;;;;5094181;28;20431;-90
2021/08/02 02:49:07;;;;;;;13.77;3.73;;;19.60;53.50;;;;;;5094546;28;20461;-91
2021/08/02 02:51:36;;;;;;;9.17;4.40;;;19.40;53.20;;;;;;5094460;28;20931;-91
2021/08/02 02:54:03;;;;;;;6.13;3.87;;;19.40;53.60;;;;;;5094764;28;20478;-92
2021/08/02 02:56:32;;;;;;;10.40;3.90;;;19.30;53.70;;;;;;5094769;28;20504;-92
2021/08/02 02:58:59;;;;;;;15.10;3.90;;;19.10;54.20;;;;;;5094721;28;20845;-92
2021/08/02 03:01:30;;;;;;;10.70;4.00;;;19.00;54.40;;;;;;5094570;28;20455;-92
2021/08/02 03:04:00;;;;;;;5.13;3.83;;;19.10;54.30;;;;;;5094865;28;20446;-92
2021/08/02 03:06:28;;;;;;;15.53;4.93;;;19.20;54.30;;;;;;5094403;28;20512;-92
2021/08/02 03:08:56;;;;;;;6.63;4.10;;;19.20;54.20;;;;;;5094178;28;20467;-92
2021/08/02 03:11:24;;;;;;;18.37;4.40;;;19.30;53.90;;;;;;5094092;28;20442;-92
2021/08/02 03:13:51;;;;;;;6.80;4.40;;;19.30;53.50;;;;;;5093813;28;21052;-92
2021/08/02 03:16:19;;;;;;;6.17;4.03;;;19.40;53.50;;;;;;5093939;28;20457;-92
2021/08/02 03:18:48;;;;;;;6.70;4.13;;;19.40;54.20;;;;;;5094119;28;20912;-92
2021/08/02 03:21:16;;;;;;;3.90;3.53;;;19.30;54.10;;;;;;5094180;28;20848;-92
2021/08/02 03:23:55;;;;;;;6.80;3.60;;;19.30;53.60;;;;;;5093695;28;20459;-92
2021/08/02 03:26:28;;;;;;;8.43;3.87;;;19.40;53.40;;;;;;5094460;28;20522;-91
2021/08/02 03:28:59;;;;;;;19.43;3.90;;;19.40;53.50;;;;;;5093973;28;20810;-91
2021/08/02 03:31:31;;;;;;;7.10;3.97;;;19.30;54.10;;;;;;5093578;28;20468;-91
2021/08/02 03:34:01;;;;;;;8.50;4.03;;;19.70;53.80;;;;;;5093631;28;21036;-91
2021/08/02 03:36:30;;;;;;;11.90;4.07;;;19.70;53.50;;;;;;5093636;28;20423;-91
2021/08/02 03:38:59;;;;;;;5.03;3.90;;;19.50;53.70;;;;;;5094195;28;20478;-91
2021/08/02 03:41:27;;;;;;;7.03;4.13;;;19.50;54.20;;;;;;5093792;28;20461;-91
2021/08/02 03:43:55;;;;;;;14.97;3.73;;;19.50;53.60;;;;;;5093177;28;20415;-91
2021/08/02 03:46:23;;;;;;;6.70;4.07;;;19.60;53.20;;;;;;5093689;28;20893;-91
2021/08/02 03:48:50;;;;;;;8.87;3.73;;;19.50;53.30;;;;;;5093727;28;20519;-91
2021/08/02 03:51:19;;;;;;;10.80;4.17;;;19.50;53.70;;;;;;5093816;28;20439;-91
2021/08/02 03:53:48;;;;;;;10.53;4.10;;;19.40;54.10;;;;;;5093445;28;20513;-91
2021/08/02 03:56:16;;;;;;;10.50;3.93;;;19.20;54.50;;;;;;5093534;28;20521;-91
2021/08/02 03:58:44;;;;;;;6.07;4.00;;;19.10;55.00;;;;;;5093415;28;20842;-91
2021/08/02 04:01:12;;;;;;;9.63;4.27;;;19.20;54.40;;;;;;5093843;28;20454;-91
2021/08/02 04:03:41;;;;;;;11.60;3.90;;;19.00;54.70;;;;;;5093404;28;20622;-91
2021/08/02 04:06:08;;;;;;;11.80;4.23;;;19.00;54.80;;;;;;5093470;28;20443;-91
2021/08/02 04:08:36;;;;;;;6.63;4.37;;;19.00;55.00;;;;;;5093822;28;20520;-91
2021/08/02 04:11:04;;;;;;;11.00;4.17;;;18.90;55.10;;;;;;5093121;28;20469;-91
2021/08/02 04:13:30;;;;;;;8.87;4.13;;;18.80;55.80;;;;;;5092860;28;20485;-90
2021/08/02 04:15:57;;;;;;;14.83;4.00;;;18.70;55.80;;;;;;5092840;28;20484;-90
2021/08/02 04:18:24;;;;;;;12.43;5.10;;;18.60;56.00;;;;;;5093439;28;20434;-90
2021/08/02 04:20:54;;;;;;;8.73;3.60;;;18.60;56.30;;;;;;5093315;28;20483;-90
2021/08/02 04:23:21;;;;;;;10.03;4.23;;;18.50;56.50;;;;;;5093096;28;20524;-90
2021/08/02 04:25:49;;;;;;;4.27;3.30;;;18.40;56.60;;;;;;5093394;28;20530;-90
2021/08/02 04:28:16;;;;;;;9.70;3.87;;;18.30;57.10;;;;;;5093249;28;20466;-90
2021/08/02 04:30:43;;;;;;;10.90;3.60;;;18.30;56.80;;;;;;5093511;28;20466;-90
2021/08/02 04:33:10;;;;;;;6.20;3.90;;;18.30;56.90;;;;;;5092922;28;20485;-90
2021/08/02 04:35:37;;;;;;;6.87;4.10;;;18.40;56.90;;;;;;5093656;28;20510;-90
2021/08/02 04:38:04;;;;;;;11.13;4.27;;;18.60;56.40;;;;;;5093937;28;20473;-89
2021/08/02 04:40:31;;;;;;;5.30;3.90;;;19.10;55.70;;;;;;5093560;28;20477;-90
2021/08/02 04:42:59;;;;;;;4.90;3.63;;;19.50;54.50;;;;;;5092948;28;20557;-89
2021/08/02 04:45:26;;;;;;;4.10;3.80;;;19.70;54.50;;;;;;5102505;28;20812;-89
2021/08/02 04:47:53;;;;;;;4.43;3.47;;;19.80;54.00;;;;;;5092813;28;20491;-89
2021/08/02 04:50:20;;;;;;;4.10;3.20;;;20.10;51.90;;;;;;5093254;28;20451;-90
2021/08/02 04:52:50;;;;;;;15.00;3.23;;;20.10;52.80;;;;;;5093194;28;20554;-89
2021/08/02 04:55:17;;;;;;;5.87;3.20;;;20.10;51.80;;;;;;5093491;28;20508;-89
2021/08/02 04:57:44;;;;;;;5.20;4.43;;;20.50;52.80;;;;;;5097081;28;20481;-89
2021/08/02 05:00:14;;;;;;;7.77;3.70;;;20.70;51.50;;;;;;5096737;28;20458;-89
2021/08/02 05:02:41;;;;;;;4.87;3.30;;;20.80;50.40;;;;;;5096808;28;20565;-89
2021/08/02 05:05:08;;;;;;;5.43;3.13;;;21.00;51.90;;;;;;5096538;28;20443;-90
2021/08/02 05:07:35;;;;;;;5.37;3.20;;;21.10;51.70;;;;;;5096452;28;20485;-89
2021/08/02 05:10:02;;;;;;;4.40;3.03;;;21.40;51.10;;;;;;5096522;28;20478;-89
2021/08/02 05:12:29;;;;;;;6.00;3.87;;;21.50;51.70;;;;;;5096453;28;20474;-89
2021/08/02 05:14:56;;;;;;;7.40;3.10;;;21.60;49.10;;;;;;5096494;28;20584;-89
2021/08/02 05:17:24;;;;;;;6.47;2.80;;;21.80;49.90;;;;;;5096644;28;20538;-89
2021/08/02 05:19:51;;;;;;;7.80;3.80;;;21.70;50.00;;;;;;5096193;28;20438;-89
2021/08/02 05:22:18;;;;;;;9.97;3.40;;;21.60;49.30;;;;;;5096382;28;20549;-89
2021/08/02 05:24:45;;;;;;;10.00;3.60;;;21.40;49.80;;;;;;5097436;28;20864;-88
2021/08/02 05:27:12;;;;;;;5.77;3.60;;;21.50;49.50;;;;;;5114309;28;20434;-90
2021/08/02 05:29:39;;;;;;;5.53;3.43;;;21.30;50.80;;;;;;5113538;28;20430;-88
2021/08/02 05:32:11;;;;;;;7.23;3.00;;;21.70;49.60;;;;;;5097902;28;20473;-89
2021/08/02 05:34:43;;;;;;;9.93;3.73;;;21.80;50.20;;;;;;5097953;28;20466;-89
2021/08/02 05:37:10;;;;;;;8.07;3.00;;;21.70;48.70;;;;;;5097391;28;20537;-89
2021/08/02 05:39:37;;;;;;;7.67;3.33;;;21.40;48.60;;;;;;5098005;28;20447;-89
2021/08/02 05:42:05;;;;;;;4.83;3.00;;;21.50;48.90;;;;;;5097288;28;20558;-89
2021/08/02 05:44:32;;;;;;;11.30;3.03;;;21.50;49.00;;;;;;5097779;28;20466;-89
2021/08/02 05:46:59;;;;;;;4.47;3.27;;;21.60;49.60;;;;;;5097154;28;20533;-89
2021/08/02 05:49:26;;;;;;;3.60;2.87;;;21.80;49.00;;;;;;5097598;28;20510;-89
2021/08/02 05:51:57;;;;;;;7.23;3.20;;;21.90;49.20;;;;;;5097036;28;20486;-89
2021/08/02 05:54:24;;;;;;;19.53;3.67;;;21.90;49.10;;;;;;5097000;28;20475;-90
2021/08/02 05:56:51;;;;;;;8.03;3.40;;;21.80;48.50;;;;;;5097775;28;20561;-90
2021/08/02 05:59:18;;;;;;;10.80;3.30;;;21.80;48.00;;;;;;5097180;28;20865;-90
2021/08/02 06:01:45;;;;;;;7.60;4.20;;;21.60;48.00;;;;;;5095300;28;20939;-90
2021/08/02 06:04:13;;;;;;;5.83;2.90;;;21.60;48.50;;;;;;5097040;28;20473;-90
2021/08/02 06:06:40;;;;;;;19.77;3.60;;;21.50;48.60;;;;;;5095857;28;20404;-89
2021/08/02 06:09:10;;;;;;;4.23;3.07;;;21.50;49.60;;;;;;5108651;28;20422;-90
2021/08/02 06:11:37;;;;;;;4.33;2.80;;;21.60;50.30;;;;;;5116948;28;20443;-90
2021/08/02 06:14:04;;;;;;;4.47;3.07;;;21.80;49.50;;;;;;5096076;28;20430;-91
2021/08/02 06:16:31;;;;;;;4.50;3.00;;;22.20;49.00;;;;;;5096052;28;20553;-90
2021/08/02 06:18:59;;;;;;;6.43;3.03;;;22.40;48.30;;;;;;5095945;28;20474;-90
2021/08/02 06:21:26;;;;;;;5.00;2.87;;;22.50;47.90;;;;;;5096168;28;20864;-90
2021/08/02 06:23:53;;;;;;;6.67;3.10;;;22.10;47.30;;;;;;5095486;28;20535;-90
2021/08/02 06:26:22;;;;;;;6.83;4.07;;;21.30;49.30;;;;;;5095424;28;20454;-90
2021/08/02 06:28:50;;;;;;;4.20;3.10;;;20.80;50.10;;;;;;5095699;28;20427;-89
2021/08/02 06:31:18;;;;;;;5.43;3.77;;;20.80;51.50;;;;;;5094822;28;20480;-90
2021/08/02 06:33:45;;;;;;;4.30;3.00;;;21.10;51.00;;;;;;5095718;28;20959;-90
2021/08/02 06:36:12;;;;;;;4.03;2.90;;;21.50;51.00;;;;;;5095999;28;20478;-90
2021/08/02 06:38:39;;;;;;;11.80;3.50;;;21.80;48.90;;;;;;5095401;28;20820;-90
2021/08/02 06:41:06;;;;;;;4.63;3.33;;;21.70;48.80;;;;;;5096247;28;20545;-90
2021/08/02 06:43:35;;;;;;;9.13;3.60;;;21.40;49.10;;;;;;5095963;28;20458;-87
2021/08/02 06:46:02;;;;;;;10.10;3.47;;;21.20;49.60;;;;;;5174033;22;20918;-86
2021/08/02 06:48:29;;;;;;;14.60;3.90;;;21.30;49.30;;;;;;5074211;28;20455;-86
2021/08/02 06:50:56;;;;;;;6.67;3.90;;;21.30;49.80;;;;;;5074427;28;20475;-86
2021/08/02 06:53:22;;;;;;;10.93;3.80;;;21.40;50.00;;;;;;5074901;28;20479;-86
2021/08/02 06:55:49;;;;;;;9.47;4.07;;;21.50;49.00;;;;;;5074187;28;20566;-86
2021/08/02 06:58:17;;;;;;;5.63;3.10;;;21.70;53.20;;;;;;5081367;28;20536;-86
2021/08/02 07:00:45;;;;;;;9.83;3.00;;;23.60;50.60;;;;;;5084466;28;20497;-86
2021/08/02 07:03:12;;;;;;;4.40;2.90;;;25.40;43.00;;;;;;5083410;28;20431;-86
2021/08/02 07:05:40;;;;;;;8.40;3.00;;;25.10;40.10;;;;;;5085918;28;20590;-87
2021/08/02 07:08:07;;;;;;;7.70;3.20;;;24.90;42.10;;;;;;5087875;28;20431;-89
2021/08/02 07:10:34;;;;;;;13.00;3.43;;;24.40;42.30;;;;;;5088944;28;20479;-86
2021/08/02 07:13:01;;;;;;;4.50;2.93;;;24.20;42.60;;;;;;5077697;28;20878;-87
2021/08/02 07:15:28;;;;;;;5.90;2.87;;;24.10;43.00;;;;;;5076081;28;20510;-86
2021/08/02 07:17:56;;;;;;;8.80;2.77;;;23.80;42.20;;;;;;5075137;28;20920;-87
2021/08/02 07:20:23;;;;;;;6.50;3.00;;;23.90;43.60;;;;;;5074843;28;20482;-86
2021/08/02 07:22:51;;;;;;;3.03;2.67;;;24.10;43.40;;;;;;5073547;28;20471;-87
2021/08/02 07:25:18;;;;;;;3.80;2.90;;;24.00;43.60;;;;;;5073536;28;20542;-87
2021/08/02 07:27:45;;;;;;;5.00;2.93;;;24.10;44.10;;;;;;5073476;28;20868;-86
2021/08/02 07:30:12;;;;;;;11.17;2.90;;;24.20;43.60;;;;;;5073764;28;20435;-87
2021/08/02 07:32:39;;;;;;;3.20;2.60;;;24.10;42.60;;;;;;5073697;28;20863;-87
2021/08/02 07:35:08;;;;;;;5.03;2.90;;;24.20;43.50;;;;;;5073837;28;20498;-86
2021/08/02 07:37:35;;;;;;;6.67;2.93;;;24.00;42.60;;;;;;5073681;28;21009;-86
2021/08/02 07:40:03;;;;;;;6.67;2.73;;;23.80;43.30;;;;;;5073328;28;20455;-86
2021/08/02 07:42:30;;;;;;;16.83;2.80;;;23.50;43.00;;;;;;5072432;28;20941;-87
2021/08/02 07:44:57;;;;;;;3.93;2.70;;;23.80;43.10;;;;;;5073352;28;20984;-86
2021/08/02 07:47:24;;;;;;;6.97;2.80;;;24.40;42.40;;;;;;5073246;28;20440;-86
2021/08/02 07:49:51;;;;;;;8.40;3.00;;;24.90;42.30;;;;;;5073382;28;20909;-86
2021/08/02 07:52:19;;;;;;;7.40;3.20;;;25.10;41.80;;;;;;5073167;28;20486;-86
2021/08/02 07:54:46;;;;;;;5.30;2.63;;;24.60;41.00;;;;;;5072684;28;20471;-87
2021/08/02 07:57:13;;;;;;;3.40;2.50;;;24.60;42.50;;;;;;5073051;28;20435;-86
2021/08/02 07:59:40;;;;;;;7.50;2.70;;;25.40;40.30;;;;;;5073195;28;20542;-86
2021/08/02 08:02:07;;;;;;;3.43;2.70;;;26.00;40.00;;;;;;5073195;28;20908;-86
2021/08/02 08:04:34;;;;;;;6.63;2.73;;;25.90;38.60;;;;;;5073856;28;20850;-86
2021/08/02 08:07:01;;;;;;;3.03;2.70;;;25.30;38.10;;;;;;5073392;28;20530;-86
2021/08/02 08:09:29;;;;;;;4.20;2.60;;;25.40;40.80;;;;;;5086083;28;20512;-87
2021/08/02 08:11:56;;;;;;;5.60;2.20;;;26.20;39.00;;;;;;5090664;28;20447;-88
2021/08/02 08:14:23;;;;;;;3.13;2.43;;;27.60;36.10;;;;;;5091257;28;20458;-88
2021/08/02 08:16:50;;;;;;;3.20;2.27;;;28.30;33.50;;;;;;5090590;28;20475;-87
2021/08/02 08:19:17;;;;;;;4.73;2.20;;;28.40;32.50;;;;;;5078470;28;20455;-87
2021/08/02 08:21:44;;;;;;;2.20;2.00;;;27.70;34.70;;;;;;5074608;28;20431;-87
2021/08/02 08:24:11;;;;;;;4.70;2.07;;;27.50;34.80;;;;;;5075203;28;20490;-87
2021/08/02 08:26:39;;;;;;;7.90;2.57;;;27.00;35.20;;;;;;5074526;28;20493;-87
2021/08/02 08:29:07;;;;;;;4.17;2.37;;;27.00;35.70;;;;;;5076659;28;20471;-87
2021/08/02 08:31:34;;;;;;;25.43;2.63;;;27.00;35.70;;;;;;5076647;28;20857;-88
2021/08/02 08:34:02;;;;;;;1.97;1.80;;;27.70;36.20;;;;;;5080528;28;20451;-88
2021/08/02 08:36:30;;;;;;;7.03;2.20;;;29.50;33.10;;;;;;5082227;28;20502;-88
2021/08/02 08:38:57;;;;;;;2.70;2.00;;;30.60;29.40;;;;;;5082668;28;20504;-88
2021/08/02 08:41:27;;;;;;;3.50;2.10;;;31.20;28.50;;;;;;5083132;28;20438;-88
2021/08/02 08:43:58;;;;;;;2.93;2.20;;;31.40;28.20;;;;;;5082954;28;20510;-88
2021/08/02 08:46:28;;;;;;;6.97;2.90;;;31.70;28.30;;;;;;5081119;28;20470;-88
2021/08/02 08:49:02;;;;;;;3.40;2.23;;;31.10;27.50;;;;;;5082087;28;20454;-87
2021/08/02 08:51:31;;;;;;;4.93;2.00;;;32.20;26.90;;;;;;5090027;28;20438;-87
2021/08/02 08:54:01;;;;;;;8.43;2.27;;;32.00;26.50;;;;;;5093244;28;20427;-88
2021/08/02 08:56:28;;;;;;;5.03;2.23;;;30.70;27.30;;;;;;5095297;28;20491;-87
2021/08/02 08:58:56;;;;;;;9.13;2.50;;;29.50;29.90;;;;;;5099324;28;20465;-87
2021/08/02 09:01:28;;;;;;;7.50;2.10;;;29.10;29.70;;;;;;5093226;28;20447;-87
2021/08/02 09:03:57;;;;;;;3.47;1.90;;;29.00;29.70;;;;;;5083551;28;20572;-87
2021/08/02 09:06:25;;;;;;;5.00;2.17;;;28.10;29.20;;;;;;5099446;28;20477;-88
2021/08/02 09:08:53;;;;;;;2.60;2.23;;;27.60;31.10;;;;;;5100025;28;20427;-89
2021/08/02 09:11:24;;;;;;;4.30;2.40;;;28.00;30.90;;;;;;5100090;28;20435;-90
2021/08/02 09:13:51;;;;;;;6.37;1.90;;;28.30;30.50;;;;;;5095246;28;20455;-89
2021/08/02 09:16:22;;;;;;;4.20;2.23;;;28.40;30.20;;;;;;5077802;28;20471;-87
2021/08/02 09:18:59;;;;;;;3.80;2.30;;;28.20;31.20;;;;;;5076935;28;20404;-88
2021/08/02 09:21:28;;;;;;;6.33;2.50;;;27.70;31.40;;;;;;5076567;28;20463;-88
2021/08/02 09:24:01;;;;;;;4.13;2.10;;;27.40;30.80;;;;;;5076570;28;20517;-88
2021/08/02 09:26:33;;;;;;;2.67;2.10;;;27.40;31.80;;;;;;5076335;28;20471;-87
2021/08/02 09:29:03;;;;;;;2.57;2.00;;;27.40;32.80;;;;;;5075231;28;20526;-89
2021/08/02 09:31:36;;;;;;;4.70;2.40;;;27.50;32.40;;;;;;5076936;28;20504;-88
2021/08/02 09:34:07;;;;;;;2.83;2.20;;;27.60;33.10;;;;;;5076625;28;20784;-88
2021/08/02 09:36:43;;;;;;;4.93;2.50;;;27.10;32.50;;;;;;5076459;28;20845;-89
2021/08/02 09:39:13;;;;;;;2.90;2.23;;;27.20;32.30;;;;;;5076414;28;20407;-89
2021/08/02 09:41:40;;;;;;;4.30;2.70;;;27.50;32.10;;;;;;5075823;28;20485;-89
2021/08/02 09:44:24;;;;;;;2.83;2.30;;;27.70;33.30;;;;;;5075970;28;20463;-88
2021/08/02 09:47:12;;;;;;;7.17;3.40;;;26.80;32.10;;;;;;5075272;28;20459;-89
2021/08/02 09:50:18;;;;;;;7.63;2.70;;;26.60;33.90;;;;;;5076567;28;20746;-88
2021/08/02 09:56:33;;;;;;;4.93;2.40;;;26.80;34.40;;;;;;5072293;28;20464;-88
2021/08/02 09:59:17;;;;;;;2.50;1.97;;;27.00;33.60;;;;;;5034077;28;20506;-88
2021/08/02 10:01:49;;;;;;;2.30;2.13;;;26.60;33.20;;;;;;5033998;28;20449;-88
2021/08/02 10:04:34;;;;;;;18.23;2.87;;;26.40;34.30;;;;;;5033776;28;20430;-88
2021/08/02 10:07:02;;;;;;;8.17;2.70;;;26.20;35.50;;;;;;5033723;28;20540;-88
2021/08/02 10:09:29;;;;;;;14.87;2.67;;;25.50;34.90;;;;;;5040525;28;20449;-88
2021/08/02 10:11:57;;;;;;;4.37;2.20;;;25.30;37.00;;;;;;5036491;28;20449;-87
2021/08/02 10:14:29;;;;;;;3.50;3.00;;;25.50;34.60;;;;;;5035098;28;20484;-89
2021/08/02 10:17:08;;;;;;;8.20;2.40;;;25.40;35.70;;;;;;5033971;28;20475;-88
2021/08/02 10:20:34;;;;;;;2.97;2.27;;;25.40;36.50;;;;;;5034228;28;20429;-88
2021/08/02 10:23:05;;;;;;;4.43;2.47;;;25.30;35.10;;;;;;5026406;28;20565;-88
2021/08/02 10:25:50;;;;;;;2.80;2.03;;;25.70;34.80;;;;;;5013889;28;20588;-88
2021/08/02 10:28:31;;;;;;;3.03;2.40;;;25.90;33.90;;;;;;5013670;28;20502;-87
2021/08/02 10:31:15;;;;;;;5.17;2.10;;;26.10;31.70;;;;;;5014260;28;20934;-88
2021/08/02 10:37:07;;;;;;;3.83;2.37;;;26.70;32.80;;;;;;5030886;28;20508;-88
2021/08/02 10:39:37;;;;;;;4.40;2.10;;;26.70;31.90;;;;;;5033685;28;20495;-88
2021/08/02 10:42:08;;;;;;;7.53;2.50;;;26.00;30.80;;;;;;5032627;28;20777;-88
2021/08/02 10:44:40;;;;;;;3.47;2.37;;;25.50;33.70;;;;;;5032458;28;20453;-88
2021/08/02 10:47:09;;;;;;;3.47;2.40;;;25.10;33.80;;;;;;5032747;28;20527;-88
2021/08/02 10:52:50;;;;;;;6.83;2.30;;;24.90;35.40;;;;;;4972120;28;20436;-88
2021/08/02 10:55:21;;;;;;;5.27;2.40;;;26.10;34.40;;;;;;4973174;28;20464;-88
2021/08/02 11:00:38;;;;;;;2.83;2.20;;;26.20;34.60;;;;;;4899387;29;20439;-90
2021/08/02 11:03:07;;;;;;;3.50;2.30;;;25.90;35.60;;;;;;4897707;29;20508;-90
2021/08/02 11:05:34;;;;;;;5.60;2.23;;;25.60;34.80;;;;;;4897490;29;20468;-88
2021/08/02 11:08:06;;;;;;;8.53;2.40;;;25.50;34.60;;;;;;4937607;29;20501;-89
2021/08/02 11:10:36;;;;;;;5.10;2.30;;;25.40;34.60;;;;;;4980921;28;20447;-86
2021/08/02 11:13:13;;;;;;;2.77;2.30;;;25.90;34.10;;;;;;4994183;28;20443;-87
2021/08/02 11:15:44;;;;;;;4.33;2.33;;;25.80;32.60;;;;;;4979842;28;20517;-88
2021/08/02 11:18:12;;;;;;;3.23;2.03;;;26.10;33.40;;;;;;4994625;28;20443;-87
2021/08/02 11:20:42;;;;;;;3.73;2.13;;;26.40;33.30;;;;;;4993555;28;20427;-87
2021/08/02 11:23:10;;;;;;;6.80;2.30;;;27.10;32.40;;;;;;5000171;28;20536;-87
2021/08/02 11:25:44;;;;;;;7.43;2.33;;;27.30;31.80;;;;;;5011986;28;20454;-87
2021/08/02 11:28:11;;;;;;;3.23;2.30;;;27.30;32.00;;;;;;5012816;28;20462;-87
2021/08/02 11:30:38;;;;;;;3.27;1.97;;;27.50;32.30;;;;;;5012603;28;20450;-87
2021/08/02 11:33:06;;;;;;;4.87;2.10;;;27.00;34.00;;;;;;5012275;28;20450;-88
2021/08/02 11:35:35;;;;;;;5.50;2.17;;;26.80;34.50;;;;;;5013346;28;20490;-87
2021/08/02 11:38:02;;;;;;;2.77;1.97;;;26.50;30.00;;;;;;5041688;28;20531;-87
2021/08/02 11:40:35;;;;;;;2.80;2.00;;;26.20;30.60;;;;;;5074460;28;20435;-87
2021/08/02 11:43:07;;;;;;;3.50;1.90;;;26.30;31.10;;;;;;5074873;28;20964;-87
2021/08/02 11:45:35;;;;;;;2.87;2.00;;;25.90;30.00;;;;;;5075031;28;20472;-87
2021/08/02 11:48:07;;;;;;;2.40;2.07;;;25.10;29.90;;;;;;5074555;28;20479;-87
2021/08/02 11:51:03;;;;;;;2.90;2.60;;;24.80;30.70;;;;;;5074221;28;20897;-87
2021/08/02 11:53:34;;;;;;;2.93;1.97;;;25.00;31.70;;;;;;5074416;28;20419;-87
2021/08/02 11:56:01;;;;;;;3.20;2.20;;;25.50;32.60;;;;;;5074331;28;20567;-86
2021/08/02 11:58:40;;;;;;;2.43;2.30;;;25.60;32.20;;;;;;5074639;28;20447;-87
2021/08/02 12:01:27;;;;;;;4.90;2.57;;;25.90;32.00;;;;;;5074722;28;20522;-87
2021/08/02 12:04:01;;;;;;;3.10;2.23;;;26.30;31.50;;;;;;5074471;28;20853;-87
2021/08/02 12:06:27;;;;;;;2.13;1.90;;;26.50;29.60;;;;;;5073056;28;20530;-87
2021/08/02 12:08:55;;;;;;;2.10;2.00;;;25.90;30.90;;;;;;5073833;28;20451;-87
2021/08/02 12:11:41;;;;;;;1.90;1.80;;;26.00;32.20;;;;;;5073640;28;20871;-87
2021/08/02 12:14:09;;;;;;;4.13;2.23;;;26.10;30.30;;;;;;5073751;28;20418;-87
2021/08/02 12:16:38;;;;;;;2.10;1.90;;;26.50;31.20;;;;;;5073721;28;20537;-87
2021/08/02 12:19:09;;;;;;;2.70;2.20;;;26.00;31.70;;;;;;5074082;28;20431;-87
2021/08/02 12:21:37;;;;;;;3.23;2.30;;;26.00;32.00;;;;;;5074167;28;20458;-88
2021/08/02 12:24:09;;;;;;;4.73;2.00;;;26.20;31.10;;;;;;5074297;28;20534;-87
2021/08/02 12:26:37;;;;;;;11.33;2.00;;;26.90;30.60;;;;;;5127135;22;20566;-87
2021/08/02 12:29:05;;;;;;;2.33;2.03;;;27.30;30.00;;;;;;5094163;28;20439;-88
2021/08/02 12:31:38;;;;;;;3.50;2.07;;;27.20;30.10;;;;;;5093841;28;20469;-87
2021/08/02 12:34:09;;;;;;;2.67;2.30;;;26.80;30.40;;;;;;5093752;28;20919;-87
2021/08/02 12:36:37;;;;;;;2.70;1.97;;;26.40;33.20;;;;;;5093797;28;20855;-87
2021/08/02 12:39:05;;;;;;;2.23;2.07;;;26.60;30.10;;;;;;5093946;28;20474;-88
2021/08/02 12:41:45;;;;;;;3.03;2.30;;;25.90;31.60;;;;;;5093657;28;20872;-87
2021/08/02 12:44:32;;;;;;;2.83;2.30;;;25.90;31.80;;;;;;5094937;28;20427;-88
2021/08/02 12:47:00;;;;;;;5.13;2.33;;;26.30;31.30;;;;;;5029372;28;20915;-88
2021/08/02 12:49:28;;;;;;;3.30;2.40;;;25.90;32.00;;;;;;5095758;28;20472;-89
2021/08/02 12:51:55;;;;;;;3.90;2.70;;;26.00;32.50;;;;;;5096078;28;20885;-89
2021/08/02 12:54:22;;;;;;;4.70;2.33;;;26.50;32.10;;;;;;5074623;28;20538;-89
2021/08/02 12:56:49;;;;;;;3.43;2.23;;;27.20;30.10;;;;;;5095004;28;20558;-87
2021/08/02 12:59:16;;;;;;;5.00;2.27;;;27.30;30.60;;;;;;5095022;28;20427;-87
2021/08/02 13:01:44;;;;;;;10.90;2.20;;;26.90;31.30;;;;;;5096763;28;20472;-88
2021/08/02 13:04:12;;;;;;;2.60;2.17;;;26.30;32.40;;;;;;5105755;28;20446;-87
2021/08/02 13:06:39;;;;;;;4.30;2.10;;;26.00;32.60;;;;;;5116552;28;20458;-91
2021/08/02 13:09:05;;;;;;;4.57;2.20;;;26.10;31.20;;;;;;5117374;28;20497;-91
2021/08/02 13:11:32;;;;;;;2.83;2.00;;;26.00;31.90;;;;;;5116543;28;20522;-91
2021/08/02 13:13:59;;;;;;;4.47;2.20;;;25.70;32.90;;;;;;5117187;28;20422;-88